Time;durP1;ratioP1;P1;durP2;ratioP2;P2;SDS_P1;SDS_P2;PMS_P1;PMS_P2;Temp;Humidity;BMP_temperature;BMP_pressure;BME280_temperature;BME280_humidity;BME280_pressure;Samples;Min_cycle;Max_cycle;Signal;HPM_P1;HPM_P2
2023/07/04 00:01:10;;;;;;;10.73;2.00;;;13.80;99.90;;;;;;5133291;27;20043;-65
2023/07/04 00:03:38;;;;;;;10.13;2.20;;;13.80;99.90;;;;;;5114681;28;20096;-66
2023/07/04 00:06:06;;;;;;;13.73;1.83;;;13.80;99.90;;;;;;5098035;28;20383;-66
2023/07/04 00:08:35;;;;;;;9.40;1.92;;;13.70;99.90;;;;;;5097250;28;20051;-65
2023/07/04 00:11:02;;;;;;;8.20;1.95;;;13.70;99.90;;;;;;5114934;28;20054;-65
2023/07/04 00:13:33;;;;;;;12.95;2.10;;;13.60;99.90;;;;;;5115399;28;20047;-66
2023/07/04 00:15:59;;;;;;;7.93;1.98;;;13.60;99.90;;;;;;5115273;28;20047;-66
2023/07/04 00:18:27;;;;;;;13.90;2.78;;;13.60;99.90;;;;;;5133142;28;20376;-67
2023/07/04 00:20:56;;;;;;;10.02;1.83;;;13.60;99.90;;;;;;5114416;28;20055;-67
2023/07/04 00:23:23;;;;;;;15.20;2.05;;;13.60;99.90;;;;;;5114826;28;20047;-66
2023/07/04 00:25:49;;;;;;;10.98;2.40;;;13.60;99.90;;;;;;5099888;27;20372;-66
2023/07/04 00:28:15;;;;;;;12.52;2.53;;;13.50;99.90;;;;;;5137072;27;20047;-66
2023/07/04 00:30:42;;;;;;;11.27;2.20;;;13.50;99.90;;;;;;5118090;27;20047;-67
2023/07/04 00:33:07;;;;;;;;;;;13.40;99.90;;;;;;5118991;27;20086;-66
2023/07/04 00:35:33;;;;;;;11.50;1.90;;;13.40;99.90;;;;;;5101774;27;20358;-67
2023/07/04 00:37:59;;;;;;;8.40;1.83;;;13.40;99.90;;;;;;5118077;27;20039;-66
2023/07/04 00:40:27;;;;;;;6.70;1.85;;;13.40;99.90;;;;;;5135834;27;20046;-67
2023/07/04 00:43:02;;;;;;;15.93;2.00;;;13.40;99.90;;;;;;5135193;27;20031;-68
2023/07/04 00:45:28;;;;;;;11.90;2.10;;;13.40;99.90;;;;;;5118479;27;20047;-66
2023/07/04 00:48:00;;;;;;;13.80;2.30;;;13.40;99.90;;;;;;5136360;27;20129;-66
2023/07/04 00:50:43;;;;;;;11.13;1.80;;;13.30;99.90;;;;;;5136366;27;20281;-67
2023/07/04 00:53:11;;;;;;;9.52;2.00;;;13.30;99.90;;;;;;5136518;27;20050;-66
2023/07/04 00:55:41;;;;;;;8.70;2.00;;;13.30;99.90;;;;;;5118685;27;20095;-69
2023/07/04 00:58:07;;;;;;;17.85;2.10;;;13.30;99.90;;;;;;5137801;27;20074;-69
2023/07/04 01:00:37;;;;;;;13.33;2.67;;;13.30;99.90;;;;;;5102211;27;20478;-69
2023/07/04 01:03:21;;;;;;;8.68;1.90;;;13.30;99.90;;;;;;5138299;27;20054;-69
2023/07/04 01:06:08;;;;;;;9.10;2.20;;;13.30;99.90;;;;;;5120169;27;20039;-69
2023/07/04 01:08:39;;;;;;;12.02;2.38;;;13.30;99.90;;;;;;5119775;27;20074;-69
2023/07/04 01:11:16;;;;;;;11.60;2.13;;;13.30;99.90;;;;;;5119494;27;20054;-70
2023/07/04 01:13:43;;;;;;;9.15;1.95;;;13.40;99.90;;;;;;5137617;27;20486;-69
2023/07/04 01:16:18;;;;;;;9.23;1.90;;;13.40;99.90;;;;;;5137566;27;20035;-70
2023/07/04 01:18:48;;;;;;;9.80;2.20;;;13.30;99.90;;;;;;5103248;27;20379;-71
2023/07/04 01:21:18;;;;;;;10.68;1.92;;;13.30;99.90;;;;;;5137665;27;20452;-69
2023/07/04 01:23:59;;;;;;;8.30;2.20;;;13.30;99.90;;;;;;5101700;27;20057;-71
2023/07/04 01:26:32;;;;;;;8.60;2.00;;;13.20;99.90;;;;;;5136710;27;20046;-68
2023/07/04 01:29:00;;;;;;;11.68;2.28;;;13.20;99.90;;;;;;5119468;27;20039;-69
2023/07/04 01:31:29;;;;;;;10.73;2.28;;;13.10;99.90;;;;;;5118842;27;20493;-70
2023/07/04 01:33:56;;;;;;;13.13;1.98;;;13.00;99.90;;;;;;5119087;27;20086;-70
2023/07/04 01:36:27;;;;;;;7.57;1.98;;;13.00;99.90;;;;;;5118187;27;20127;-70
2023/07/04 01:38:54;;;;;;;7.72;2.17;;;13.00;99.90;;;;;;5119663;27;20042;-70
2023/07/04 01:41:24;;;;;;;8.75;2.42;;;12.90;99.90;;;;;;5137068;27;20486;-70
2023/07/04 01:43:58;;;;;;;12.82;2.45;;;12.90;99.90;;;;;;5139409;27;20046;-69
2023/07/04 01:46:25;;;;;;;5.95;2.00;;;12.90;99.90;;;;;;5138978;27;20043;-69
2023/07/04 01:48:51;;;;;;;15.23;2.60;;;12.80;99.90;;;;;;5121040;27;20051;-69
2023/07/04 01:51:23;;;;;;;8.85;1.88;;;12.80;99.90;;;;;;5120047;27;20451;-69
2023/07/04 01:53:49;;;;;;;8.43;2.10;;;12.80;99.90;;;;;;5144963;27;20054;-71
2023/07/04 01:56:15;;;;;;;11.23;2.47;;;12.80;99.90;;;;;;5142153;27;20031;-70
2023/07/04 01:58:41;;;;;;;11.80;2.58;;;12.70;99.90;;;;;;5137464;27;20054;-70
2023/07/04 02:01:06;;;;;;;8.55;1.98;;;12.70;99.90;;;;;;5084915;27;20154;-69
2023/07/04 02:03:32;;;;;;;6.00;1.88;;;12.70;99.90;;;;;;5137017;27;20050;-69
2023/07/04 02:05:58;;;;;;;9.95;2.45;;;12.60;99.90;;;;;;5118225;27;20047;-69
2023/07/04 02:08:23;;;;;;;12.38;2.53;;;12.60;99.90;;;;;;5120782;27;20051;-68
2023/07/04 02:10:49;;;;;;;8.40;2.65;;;12.60;99.90;;;;;;5137946;27;20051;-69
2023/07/04 02:13:15;;;;;;;13.40;2.90;;;12.60;99.90;;;;;;5119166;27;20043;-70
2023/07/04 02:15:41;;;;;;;9.05;2.83;;;12.60;99.90;;;;;;5119227;27;20046;-69
2023/07/04 02:18:07;;;;;;;12.93;3.00;;;12.60;99.90;;;;;;5136809;27;20130;-70
2023/07/04 02:20:33;;;;;;;11.38;2.25;;;12.60;99.90;;;;;;5118310;27;20054;-70
2023/07/04 02:22:58;;;;;;;7.97;2.80;;;12.50;99.90;;;;;;5118770;27;20039;-69
2023/07/04 02:25:24;;;;;;;9.77;2.67;;;12.50;99.90;;;;;;5136027;27;20054;-71
2023/07/04 02:27:50;;;;;;;11.85;2.78;;;12.50;99.90;;;;;;5135526;27;20402;-72
2023/07/04 02:30:16;;;;;;;10.88;3.05;;;12.50;99.90;;;;;;5136024;27;20050;-69
2023/07/04 02:32:41;;;;;;;12.52;2.65;;;12.50;99.90;;;;;;5135941;27;20054;-71
2023/07/04 02:35:07;;;;;;;10.68;2.80;;;12.50;99.90;;;;;;5100617;27;20053;-70
2023/07/04 02:37:33;;;;;;;8.40;2.67;;;12.50;99.90;;;;;;5152152;27;20382;-70
2023/07/04 02:39:59;;;;;;;12.15;2.80;;;12.50;99.90;;;;;;5101591;27;20133;-71
2023/07/04 02:42:24;;;;;;;11.02;2.60;;;12.50;99.90;;;;;;5135940;27;20074;-69
2023/07/04 02:44:51;;;;;;;16.88;3.38;;;12.60;99.90;;;;;;5135699;27;20103;-70
2023/07/04 02:47:18;;;;;;;8.03;2.77;;;12.60;99.90;;;;;;5099390;27;20039;-70
2023/07/04 02:49:44;;;;;;;10.93;2.55;;;12.60;99.90;;;;;;5135677;27;20042;-71
2023/07/04 02:52:10;;;;;;;9.73;2.42;;;12.60;99.90;;;;;;5135558;27;20451;-71
2023/07/04 02:54:36;;;;;;;17.00;3.00;;;12.70;99.90;;;;;;5117212;27;20177;-70
2023/07/04 02:57:02;;;;;;;12.27;3.10;;;12.70;99.90;;;;;;5135563;27;20541;-70
2023/07/04 02:59:27;;;;;;;12.40;2.92;;;12.70;99.90;;;;;;5135782;27;20043;-71
2023/07/04 03:01:53;;;;;;;12.05;3.08;;;12.80;99.90;;;;;;5129822;27;20098;-71
2023/07/04 03:04:20;;;;;;;9.73;2.38;;;12.70;99.90;;;;;;5132821;27;20078;-69
2023/07/04 03:06:45;;;;;;;14.05;3.20;;;12.70;99.90;;;;;;5117432;27;20047;-70
2023/07/04 03:09:11;;;;;;;11.05;2.85;;;12.70;99.90;;;;;;5135330;27;20134;-70
2023/07/04 03:11:37;;;;;;;15.48;3.25;;;12.70;99.90;;;;;;5117530;27;20039;-71
2023/07/04 03:14:03;;;;;;;18.45;3.72;;;12.70;99.90;;;;;;5117175;27;20047;-70
2023/07/04 03:16:28;;;;;;;12.63;3.10;;;12.70;99.90;;;;;;5116776;27;20122;-70
2023/07/04 03:18:54;;;;;;;11.98;3.35;;;12.60;99.90;;;;;;5117355;27;20043;-70
2023/07/04 03:21:21;;;;;;;8.32;3.00;;;12.60;99.90;;;;;;5116641;27;20038;-71
2023/07/04 03:23:46;;;;;;;15.48;3.50;;;12.60;99.90;;;;;;5117010;27;20055;-70
2023/07/04 03:26:12;;;;;;;13.57;3.55;;;12.60;99.90;;;;;;5133583;27;20112;-70
2023/07/04 03:28:38;;;;;;;15.93;3.70;;;12.60;99.90;;;;;;5151004;27;20054;-70
2023/07/04 03:31:05;;;;;;;10.10;3.25;;;12.60;99.90;;;;;;5135402;27;20047;-70
2023/07/04 03:33:30;;;;;;;10.10;3.80;;;12.60;99.90;;;;;;5135659;27;20097;-70
2023/07/04 03:35:57;;;;;;;17.75;3.53;;;12.60;99.90;;;;;;5116962;28;20650;-70
2023/07/04 03:38:24;;;;;;;16.42;3.60;;;12.60;99.90;;;;;;5116872;27;20070;-69
2023/07/04 03:40:50;;;;;;;14.50;3.33;;;12.60;99.90;;;;;;5116709;28;20047;-70
2023/07/04 03:43:16;;;;;;;8.33;3.10;;;12.60;99.90;;;;;;5134695;28;20051;-69
2023/07/04 03:45:45;;;;;;;10.30;3.58;;;12.70;99.90;;;;;;5134856;28;20360;-70
2023/07/04 03:48:10;;;;;;;10.93;3.30;;;12.70;99.90;;;;;;5116536;28;20050;-70
2023/07/04 03:50:37;;;;;;;11.55;3.55;;;12.70;99.90;;;;;;5134584;28;20487;-69
2023/07/04 03:53:03;;;;;;;10.60;3.42;;;12.80;99.90;;;;;;5134467;28;20047;-70
2023/07/04 03:55:29;;;;;;;11.70;3.42;;;12.80;99.90;;;;;;5116961;28;20459;-70
2023/07/04 03:57:54;;;;;;;16.90;4.13;;;12.80;99.90;;;;;;5116731;27;20507;-70
2023/07/04 04:00:20;;;;;;;10.32;3.80;;;12.80;99.90;;;;;;5138838;27;20546;-71
2023/07/04 04:02:46;;;;;;;13.07;3.78;;;12.80;99.90;;;;;;5138549;27;20051;-69
2023/07/04 04:05:12;;;;;;;9.95;3.30;;;12.80;99.90;;;;;;5138656;27;20054;-70
2023/07/04 04:07:38;;;;;;;13.40;3.28;;;12.90;99.90;;;;;;5138967;27;20039;-70
2023/07/04 04:10:04;;;;;;;12.43;3.70;;;12.90;99.90;;;;;;5144478;27;20072;-73
2023/07/04 04:12:30;;;;;;;11.85;3.17;;;12.90;99.90;;;;;;5136804;27;20047;-69
2023/07/04 04:14:56;;;;;;;12.57;3.45;;;12.90;99.90;;;;;;5123002;27;20090;-69
2023/07/04 04:17:22;;;;;;;13.02;3.28;;;13.00;99.90;;;;;;5138471;27;20047;-70
2023/07/04 04:19:47;;;;;;;10.93;3.65;;;13.00;99.90;;;;;;5139082;27;20043;-70
2023/07/04 04:22:14;;;;;;;10.25;2.85;;;13.00;99.90;;;;;;5119945;27;20485;-70
2023/07/04 04:24:40;;;;;;;13.80;3.90;;;13.00;99.90;;;;;;5103309;27;20079;-70
2023/07/04 04:27:08;;;;;;;11.70;3.08;;;13.10;99.90;;;;;;5137720;27;20147;-71
2023/07/04 04:29:35;;;;;;;11.38;3.10;;;13.10;99.90;;;;;;5103858;27;20137;-71
2023/07/04 04:32:01;;;;;;;8.60;2.75;;;13.10;99.90;;;;;;5138063;27;20417;-71
2023/07/04 04:34:26;;;;;;;9.70;2.97;;;13.20;99.90;;;;;;5137819;27;20118;-70
2023/07/04 04:36:52;;;;;;;10.95;2.63;;;13.30;99.90;;;;;;5138185;27;20126;-71
2023/07/04 04:39:18;;;;;;;12.05;2.70;;;13.30;99.90;;;;;;5137758;27;20050;-71
2023/07/04 04:41:44;;;;;;;10.52;2.45;;;13.30;99.90;;;;;;5137976;27;20188;-72
2023/07/04 04:44:10;;;;;;;7.70;1.45;;;13.30;99.90;;;;;;5137877;27;20082;-71
2023/07/04 04:46:35;;;;;;;11.50;2.45;;;13.40;99.90;;;;;;5138216;27;20467;-70
2023/07/04 04:49:03;;;;;;;7.45;1.88;;;13.40;99.90;;;;;;5137642;27;20137;-68
2023/07/04 04:51:28;;;;;;;;;;;13.40;99.90;;;;;;5120198;27;20047;-71
2023/07/04 04:53:54;;;;;;;10.63;2.00;;;13.50;99.90;;;;;;5119698;27;19919;-71
2023/07/04 04:56:20;;;;;;;9.18;2.00;;;13.50;99.90;;;;;;5138218;27;20047;-71
2023/07/04 04:58:46;;;;;;;7.95;2.50;;;13.50;99.90;;;;;;5102147;27;20043;-70
2023/07/04 05:01:22;;;;;;;8.38;1.98;;;13.50;99.90;;;;;;5137169;27;20047;-72
2023/07/04 05:03:49;;;;;;;;;;;13.50;99.90;;;;;;5120466;27;20051;-71
2023/07/04 05:06:19;;;;;;;;;;;13.60;99.90;;;;;;5137529;27;19959;-71
2023/07/04 05:08:44;;;;;;;9.18;1.60;;;13.50;99.90;;;;;;5137517;27;20379;-71
2023/07/04 05:11:10;;;;;;;6.65;2.00;;;13.50;99.90;;;;;;5136445;27;20101;-73
2023/07/04 05:13:45;;;;;;;9.13;2.22;;;13.60;99.90;;;;;;5119488;27;20470;-70
2023/07/04 05:16:13;;;;;;;9.18;2.00;;;13.60;99.90;;;;;;5137699;27;20082;-71
2023/07/04 05:18:40;;;;;;;5.68;1.45;;;13.60;99.90;;;;;;5123068;27;20115;-71
2023/07/04 05:21:06;;;;;;;6.70;1.70;;;13.70;99.90;;;;;;5135747;27;20069;-72
2023/07/04 05:23:38;;;;;;;8.82;2.00;;;13.70;99.90;;;;;;5139968;27;20039;-71
2023/07/04 05:26:25;;;;;;;5.78;1.48;;;13.80;99.90;;;;;;5118634;27;20054;-72
2023/07/04 05:28:52;;;;;;;6.25;1.70;;;13.80;99.90;;;;;;5119651;27;20047;-72
2023/07/04 05:31:20;;;;;;;8.38;1.70;;;13.80;99.90;;;;;;5119374;27;20051;-73
2023/07/04 05:33:47;;;;;;;8.27;1.85;;;13.90;99.90;;;;;;5118416;27;20054;-70
2023/07/04 05:36:30;;;;;;;7.53;1.70;;;14.00;99.90;;;;;;5136773;27;20035;-69
2023/07/04 05:39:00;;;;;;;8.93;1.77;;;14.00;99.90;;;;;;5119321;27;20062;-69
2023/07/04 05:41:26;;;;;;;7.35;1.98;;;14.10;99.90;;;;;;5118600;27;20134;-69
2023/07/04 05:43:55;;;;;;;8.80;1.52;;;14.10;99.90;;;;;;5137679;27;20126;-71
2023/07/04 05:46:21;;;;;;;7.28;1.45;;;14.20;99.90;;;;;;5136412;27;20112;-71
2023/07/04 05:48:47;;;;;;;7.53;1.63;;;14.20;99.90;;;;;;5118199;27;20043;-69
2023/07/04 05:51:15;;;;;;;6.40;1.40;;;14.30;99.90;;;;;;5117901;27;20512;-70
2023/07/04 05:53:43;;;;;;;6.97;1.50;;;14.40;99.90;;;;;;5118673;27;20475;-71
2023/07/04 05:56:14;;;;;;;7.65;1.50;;;14.40;99.90;;;;;;5136305;27;20039;-70
2023/07/04 05:58:42;;;;;;;7.25;1.35;;;14.50;99.90;;;;;;5136538;27;20047;-70
2023/07/04 06:01:14;;;;;;;5.82;1.30;;;14.50;99.90;;;;;;5136631;27;20118;-69
2023/07/04 06:03:40;;;;;;;4.95;1.35;;;14.60;99.90;;;;;;5136339;27;20035;-70
2023/07/04 06:06:15;;;;;;;15.02;1.90;;;14.70;99.90;;;;;;5136153;27;20043;-70
2023/07/04 06:08:41;;;;;;;6.07;1.10;;;14.70;99.90;;;;;;5136302;27;20163;-70
2023/07/04 06:11:07;;;;;;;9.15;1.55;;;14.80;99.90;;;;;;5118288;27;20114;-70
2023/07/04 06:13:33;;;;;;;5.93;1.27;;;14.80;99.90;;;;;;5136254;27;20043;-69
2023/07/04 06:16:02;;;;;;;7.88;1.33;;;14.90;99.90;;;;;;5136183;27;20051;-70
2023/07/04 06:18:28;;;;;;;10.20;1.73;;;14.90;99.90;;;;;;5136000;27;20133;-69
2023/07/04 06:21:03;;;;;;;7.05;1.40;;;15.00;99.90;;;;;;5117747;27;20051;-70
2023/07/04 06:23:29;;;;;;;6.10;1.17;;;15.10;99.90;;;;;;5119827;27;20055;-71
2023/07/04 06:25:58;;;;;;;10.18;1.25;;;15.20;99.90;;;;;;5100653;27;20471;-70
2023/07/04 06:28:23;;;;;;;4.82;1.10;;;15.20;99.90;;;;;;5142235;27;20082;-72
2023/07/04 06:30:49;;;;;;;8.55;1.27;;;15.20;99.90;;;;;;5150589;27;20044;-72
2023/07/04 06:33:15;;;;;;;8.45;1.13;;;15.20;99.90;;;;;;5118905;27;20133;-71
2023/07/04 06:35:42;;;;;;;5.13;0.87;;;15.30;99.90;;;;;;5136730;27;20055;-70
2023/07/04 06:38:11;;;;;;;4.85;1.25;;;15.50;99.90;;;;;;5135919;27;20047;-69
2023/07/04 06:40:37;;;;;;;6.32;1.10;;;15.70;99.90;;;;;;5136529;27;20054;-70
2023/07/04 06:43:05;;;;;;;9.68;1.50;;;15.80;99.90;;;;;;5117498;27;20391;-71
2023/07/04 06:45:32;;;;;;;5.32;0.90;;;15.90;99.90;;;;;;5117380;27;20541;-70
2023/07/04 06:47:58;;;;;;;;;;;16.10;99.90;;;;;;5136160;27;20487;-70
2023/07/04 06:50:24;;;;;;;7.47;1.17;;;16.20;99.90;;;;;;5118446;27;19919;-72
2023/07/04 06:52:50;;;;;;;6.75;1.60;;;16.20;99.90;;;;;;5138509;27;20432;-71
2023/07/04 06:55:16;;;;;;;6.35;1.02;;;16.20;99.90;;;;;;5158799;27;20055;-70
2023/07/04 06:57:43;;;;;;;5.60;0.90;;;16.30;99.90;;;;;;5090484;27;20051;-71
2023/07/04 07:00:10;;;;;;;8.95;1.35;;;16.40;99.90;;;;;;5118989;27;20126;-70
2023/07/04 07:02:35;;;;;;;6.70;0.80;;;16.50;99.90;;;;;;5136635;27;20044;-70
2023/07/04 07:05:02;;;;;;;9.82;1.20;;;16.40;99.90;;;;;;5119926;27;20142;-69
2023/07/04 07:07:27;;;;;;;7.23;0.97;;;16.50;99.90;;;;;;5117789;27;20490;-71
2023/07/04 07:09:53;;;;;;;7.05;1.08;;;16.50;99.90;;;;;;5116834;27;20285;-70
2023/07/04 07:12:19;;;;;;;7.57;1.17;;;16.50;99.90;;;;;;5117116;27;20179;-72
2023/07/04 07:14:47;;;;;;;5.75;0.98;;;16.50;99.90;;;;;;5099925;27;20047;-69
2023/07/04 07:17:13;;;;;;;7.47;0.75;;;16.50;99.90;;;;;;5117601;27;20384;-70
2023/07/04 07:19:39;;;;;;;5.18;0.77;;;16.50;99.90;;;;;;5122586;27;20054;-70
2023/07/04 07:22:04;;;;;;;4.90;1.00;;;16.50;99.90;;;;;;5140398;27;20456;-70
2023/07/04 07:24:31;;;;;;;14.50;0.85;;;16.70;99.90;;;;;;5140830;27;20078;-71
2023/07/04 07:26:57;;;;;;;;;;;16.80;99.90;;;;;;5137907;27;20476;-70
2023/07/04 07:29:24;;;;;;;6.07;0.95;;;17.00;99.90;;;;;;5135017;27;19926;-71
2023/07/04 07:31:50;;;;;;;6.95;1.23;;;17.20;99.90;;;;;;5135099;27;20173;-70
2023/07/04 07:34:17;;;;;;;8.43;0.97;;;17.30;99.90;;;;;;5099632;28;20043;-70
2023/07/04 07:36:44;;;;;;;11.10;1.02;;;17.30;99.90;;;;;;5135237;27;20300;-69
2023/07/04 07:39:13;;;;;;;8.57;0.88;;;17.40;99.90;;;;;;5130245;28;20054;-71
2023/07/04 07:41:42;;;;;;;5.78;0.77;;;17.50;99.90;;;;;;5137923;28;20051;-70
2023/07/04 07:44:08;;;;;;;5.25;0.75;;;17.50;99.90;;;;;;5100325;28;20143;-69
2023/07/04 07:46:35;;;;;;;6.15;1.00;;;17.50;99.90;;;;;;5135328;28;20042;-70
2023/07/04 07:49:00;;;;;;;5.82;0.93;;;17.70;99.90;;;;;;5135416;28;20112;-69
2023/07/04 07:51:27;;;;;;;6.53;0.93;;;17.90;99.90;;;;;;5135198;28;20043;-72
2023/07/04 07:53:54;;;;;;;5.82;0.80;;;18.20;99.90;;;;;;5134293;28;20043;-70
2023/07/04 07:56:22;;;;;;;8.40;1.20;;;18.30;99.90;;;;;;5134679;28;20043;-70
2023/07/04 07:58:48;;;;;;;5.72;0.93;;;18.50;99.90;;;;;;5116843;28;20100;-70
2023/07/04 08:01:20;;;;;;;7.75;0.98;;;18.40;99.90;;;;;;5135220;28;20043;-72
2023/07/04 08:03:47;;;;;;;6.03;1.00;;;18.30;99.90;;;;;;5115870;28;20039;-70
2023/07/04 08:06:43;;;;;;;7.25;0.90;;;18.40;99.90;;;;;;5116227;28;20134;-71
2023/07/04 08:09:14;;;;;;;8.98;0.80;;;18.40;99.90;;;;;;5114986;28;20197;-71
2023/07/04 08:11:42;;;;;;;7.20;0.70;;;18.40;99.90;;;;;;5116076;28;20130;-71
2023/07/04 08:14:08;;;;;;;6.70;0.85;;;18.50;99.90;;;;;;5116991;28;20054;-70
2023/07/04 08:16:44;;;;;;;10.65;0.90;;;18.70;99.90;;;;;;5135013;28;20043;-74
2023/07/04 08:19:10;;;;;;;7.78;1.13;;;18.80;99.90;;;;;;5134456;28;20043;-71
2023/07/04 08:21:36;;;;;;;7.90;1.13;;;18.90;99.90;;;;;;5099309;28;20050;-69
2023/07/04 08:24:03;;;;;;;8.98;1.08;;;19.00;99.90;;;;;;5134278;28;20130;-71
2023/07/04 08:26:28;;;;;;;8.25;1.48;;;19.20;99.90;;;;;;5134212;28;20039;-70
2023/07/04 08:28:56;;;;;;;9.53;1.40;;;19.30;99.90;;;;;;5099596;28;20059;-69
2023/07/04 08:31:23;;;;;;;11.30;1.15;;;19.40;99.90;;;;;;5150197;27;20151;-71
2023/07/04 08:33:49;;;;;;;9.25;0.90;;;19.60;99.90;;;;;;5115960;28;20045;-72
2023/07/04 08:36:17;;;;;;;6.87;0.87;;;19.60;99.90;;;;;;5150181;27;20039;-70
2023/07/04 08:38:45;;;;;;;8.88;0.98;;;19.60;99.90;;;;;;5134735;28;20771;-71
2023/07/04 08:41:37;;;;;;;7.32;1.20;;;19.40;99.90;;;;;;5135182;28;20047;-72
2023/07/04 08:44:13;;;;;;;10.15;1.10;;;19.10;99.90;;;;;;5136653;27;20172;-70
2023/07/04 08:46:42;;;;;;;7.38;0.70;;;19.10;99.90;;;;;;5105682;27;20120;-70
2023/07/04 08:49:51;;;;;;;10.43;1.13;;;19.10;99.90;;;;;;5145568;27;20051;-69
2023/07/04 08:52:35;;;;;;;8.00;1.05;;;19.00;99.90;;;;;;5120240;27;20134;-72
2023/07/04 08:55:02;;;;;;;13.82;1.15;;;18.90;99.90;;;;;;5120205;27;20051;-70
2023/07/04 08:57:41;;;;;;;7.50;0.98;;;18.80;99.90;;;;;;5119669;27;20077;-70
2023/07/04 09:00:30;;;;;;;10.02;1.00;;;18.60;99.90;;;;;;5120014;27;20050;-70
2023/07/04 09:03:02;;;;;;;10.88;1.27;;;18.50;99.90;;;;;;5119466;27;20035;-69
2023/07/04 09:05:54;;;;;;;12.23;1.13;;;18.10;99.90;;;;;;5137689;27;20054;-70
2023/07/04 09:08:45;;;;;;;9.63;1.10;;;17.80;99.90;;;;;;5136999;27;20111;-74
2023/07/04 09:11:41;;;;;;;9.00;1.02;;;17.50;99.90;;;;;;5102893;27;20106;-72
2023/07/04 09:14:40;;;;;;;8.20;1.08;;;17.30;99.90;;;;;;5105331;27;20035;-72
2023/07/04 09:17:23;;;;;;;10.15;1.10;;;17.10;99.90;;;;;;5137563;27;20437;-70
2023/07/04 09:19:49;;;;;;;5.97;0.82;;;17.10;99.90;;;;;;5137338;27;20055;-71
2023/07/04 09:25:57;;;;;;;8.68;1.27;;;17.40;99.90;;;;;;5137236;27;20057;-72
2023/07/04 09:28:24;;;;;;;7.50;1.08;;;17.60;99.90;;;;;;5118631;27;20155;-73
2023/07/04 09:30:53;;;;;;;7.30;1.02;;;17.80;99.90;;;;;;5119077;27;20394;-71
2023/07/04 09:33:21;;;;;;;7.35;1.08;;;18.00;99.90;;;;;;5102184;27;20189;-71
2023/07/04 09:35:47;;;;;;;7.80;1.27;;;18.10;99.90;;;;;;5118934;27;20051;-71
2023/07/04 09:38:13;;;;;;;6.63;1.30;;;18.30;99.90;;;;;;5138020;27;20045;-72
2023/07/04 09:41:05;;;;;;;5.20;1.17;;;18.50;99.90;;;;;;5135928;27;20484;-71
2023/07/04 09:43:32;;;;;;;5.90;1.00;;;18.60;99.90;;;;;;5115584;27;20055;-70
2023/07/04 09:46:12;;;;;;;4.88;0.85;;;18.60;99.90;;;;;;5119024;27;20058;-70
2023/07/04 09:48:39;;;;;;;5.72;0.90;;;18.50;99.90;;;;;;5137130;27;20047;-70
2023/07/04 09:51:29;;;;;;;7.97;1.08;;;18.40;99.90;;;;;;5137177;27;20047;-70
2023/07/04 09:54:11;;;;;;;6.93;1.20;;;18.30;99.90;;;;;;5137186;27;20093;-70
2023/07/04 09:56:37;;;;;;;7.70;1.02;;;18.20;99.90;;;;;;5149827;27;20047;-71
2023/07/04 09:59:28;;;;;;;6.10;1.00;;;18.20;99.90;;;;;;5108476;27;20054;-72
2023/07/04 10:02:18;;;;;;;9.02;1.38;;;18.30;99.90;;;;;;5107595;27;20051;-72
2023/07/04 10:04:49;;;;;;;7.05;1.40;;;18.40;99.90;;;;;;5123982;27;20051;-70
2023/07/04 10:07:17;;;;;;;7.10;1.08;;;18.60;99.90;;;;;;5136184;27;20047;-70
2023/07/04 10:10:06;;;;;;;5.43;1.13;;;18.90;99.90;;;;;;5136199;27;20126;-71
2023/07/04 10:12:41;;;;;;;10.35;1.40;;;19.20;99.90;;;;;;5118625;27;20126;-71
2023/07/04 10:15:08;;;;;;;7.00;0.90;;;19.50;99.90;;;;;;5136246;27;20102;-71
2023/07/04 10:17:35;;;;;;;10.02;1.45;;;19.70;99.90;;;;;;5136221;27;20050;-71
2023/07/04 10:20:13;;;;;;;9.38;1.80;;;19.70;99.90;;;;;;5117641;27;20059;-73
2023/07/04 10:22:49;;;;;;;9.25;1.50;;;19.50;99.90;;;;;;5153120;27;20043;-71
2023/07/04 10:25:23;;;;;;;10.73;1.10;;;19.30;99.90;;;;;;5136140;27;20039;-70
2023/07/04 10:27:53;;;;;;;4.85;1.00;;;19.00;99.90;;;;;;5135799;27;20300;-75
2023/07/04 10:30:25;;;;;;;13.20;1.70;;;18.90;99.90;;;;;;5117525;27;20130;-71
2023/07/04 10:32:56;;;;;;;13.60;2.00;;;18.70;99.90;;;;;;5135442;27;20121;-71
2023/07/04 10:35:27;;;;;;;9.88;1.65;;;18.70;99.90;;;;;;5136607;27;20134;-70
2023/07/04 10:37:58;;;;;;;9.05;1.45;;;18.60;99.90;;;;;;5136161;27;20043;-72
2023/07/04 10:40:26;;;;;;;11.10;1.30;;;18.80;99.90;;;;;;5134934;27;20043;-70
2023/07/04 10:43:02;;;;;;;8.32;1.20;;;19.20;99.90;;;;;;5135584;27;20043;-71
2023/07/04 10:45:29;;;;;;;13.02;1.70;;;19.40;99.90;;;;;;5117764;27;20040;-72
2023/07/04 10:48:00;;;;;;;11.88;1.33;;;19.50;99.90;;;;;;5117090;27;20074;-70
2023/07/04 10:50:33;;;;;;;7.80;1.10;;;19.60;99.90;;;;;;5117619;27;20047;-72
2023/07/04 10:53:00;;;;;;;8.85;1.17;;;19.50;99.90;;;;;;5135925;27;20399;-69
2023/07/04 10:55:56;;;;;;;9.70;1.52;;;19.40;99.90;;;;;;5135433;27;20054;-71
2023/07/04 10:58:24;;;;;;;9.55;1.08;;;19.50;99.90;;;;;;5135930;27;20047;-70
2023/07/04 11:01:01;;;;;;;10.57;2.00;;;19.70;99.90;;;;;;5151840;27;20047;-70
2023/07/04 11:03:38;;;;;;;;;;;19.80;99.90;;;;;;5146775;27;20043;-68
2023/07/04 11:06:14;;;;;;;7.85;1.30;;;19.80;99.90;;;;;;5129971;27;19948;-69
2023/07/04 11:08:41;;;;;;;7.15;0.95;;;19.80;99.90;;;;;;5135304;27;20039;-70
2023/07/04 11:11:10;;;;;;;10.55;1.42;;;19.60;99.90;;;;;;5117291;27;20051;-72
2023/07/04 11:13:51;;;;;;;13.43;1.67;;;19.70;99.90;;;;;;5117342;27;20070;-70
2023/07/04 11:16:22;;;;;;;10.38;1.35;;;19.80;99.90;;;;;;5135081;27;20051;-70
2023/07/04 11:19:03;;;;;;;8.65;1.25;;;19.80;99.90;;;;;;5135873;27;20043;-71
2023/07/04 11:21:29;;;;;;;11.45;1.60;;;19.90;99.90;;;;;;5117953;27;20058;-71
2023/07/04 11:24:12;;;;;;;11.77;1.45;;;19.90;99.90;;;;;;5117358;27;20046;-76
2023/07/04 11:26:58;;;;;;;12.95;1.88;;;20.00;99.90;;;;;;5134792;27;20088;-71
2023/07/04 11:29:25;;;;;;;9.35;1.30;;;19.90;99.90;;;;;;5134415;27;20058;-71
2023/07/04 11:32:04;;;;;;;11.55;1.63;;;19.80;99.90;;;;;;5116436;27;20142;-71
2023/07/04 11:34:47;;;;;;;11.35;1.70;;;19.80;99.90;;;;;;5117007;27;20055;-69
2023/07/04 11:37:18;;;;;;;6.40;1.20;;;19.90;99.90;;;;;;5116634;27;20058;-71
2023/07/04 11:39:51;;;;;;;8.27;1.35;;;20.00;99.90;;;;;;5134711;27;20514;-72
2023/07/04 11:42:21;;;;;;;16.48;1.90;;;20.10;99.90;;;;;;5134036;28;20043;-72
2023/07/04 11:45:17;;;;;;;10.65;1.50;;;20.00;99.90;;;;;;5134980;28;20066;-71
2023/07/04 11:47:49;;;;;;;8.75;1.40;;;20.20;99.90;;;;;;5134846;28;20043;-70
2023/07/04 11:50:43;;;;;;;11.35;1.35;;;20.10;99.90;;;;;;5135246;28;20043;-70
2023/07/04 11:53:23;;;;;;;9.63;1.38;;;20.40;99.90;;;;;;5116688;28;20043;-71
2023/07/04 11:56:26;;;;;;;7.50;1.27;;;20.40;99.90;;;;;;5151577;27;20054;-72
2023/07/04 11:59:10;;;;;;;10.68;1.20;;;20.30;99.90;;;;;;5034963;28;20071;-71
2023/07/04 12:01:51;;;;;;;7.72;1.27;;;20.10;99.90;;;;;;5111351;28;20059;-71
2023/07/04 12:04:43;;;;;;;11.57;1.73;;;19.90;99.90;;;;;;5099604;28;20051;-69
2023/07/04 12:07:40;;;;;;;6.20;1.20;;;19.70;99.90;;;;;;5120196;28;20075;-68
2023/07/04 12:10:15;;;;;;;10.30;1.20;;;19.50;99.90;;;;;;5133230;27;20051;-71
2023/07/04 12:12:42;;;;;;;4.53;0.65;;;19.50;99.90;;;;;;5128564;28;20039;-69
2023/07/04 12:15:14;;;;;;;11.32;1.30;;;19.40;99.90;;;;;;5140883;28;20061;-72
2023/07/04 12:17:43;;;;;;;11.43;1.42;;;19.40;99.90;;;;;;5116822;28;20183;-71
2023/07/04 12:20:18;;;;;;;4.85;0.85;;;19.60;99.90;;;;;;5137469;27;20043;-71
2023/07/04 12:23:00;;;;;;;7.05;1.20;;;19.70;99.90;;;;;;5138747;27;20172;-71
2023/07/04 12:25:45;;;;;;;8.07;1.00;;;;;;;;;;5138677;27;20043;-73
2023/07/04 12:28:12;;;;;;;11.57;1.20;;;;;;;;;;5119904;27;20078;-72
2023/07/04 12:30:39;;;;;;;8.68;0.90;;;;;;;;;;5103273;27;20444;-70
2023/07/04 12:33:05;;;;;;;;;;;;;;;;;;5121454;27;20455;-73
2023/07/04 12:35:32;;;;;;;11.65;1.10;;;;;;;;;;5102864;27;20355;-72
2023/07/04 12:37:58;;;;;;;;;;;;;;;;;;5138665;27;20123;-72
2023/07/04 12:40:28;;;;;;;8.65;1.02;;;;;;;;;;5138412;27;20005;-73
2023/07/04 12:42:55;;;;;;;8.25;0.98;;;;;;;;;;5103109;27;20043;-73
2023/07/04 12:45:22;;;;;;;12.70;1.20;;;;;;;;;;5138024;27;20074;-73
2023/07/04 12:47:49;;;;;;;9.25;1.20;;;;;;;;;;5119423;27;20428;-71
2023/07/04 12:50:16;;;;;;;11.32;1.10;;;;;;;;;;5102814;27;20099;-71
2023/07/04 12:52:45;;;;;;;;;;;;;;;;;;5138418;27;20051;-71
2023/07/04 12:55:15;;;;;;;11.10;1.63;;;;;;;;;;5120190;27;19923;-72
2023/07/04 12:57:42;;;;;;;11.73;1.63;;;;;;;;;;5137796;27;20046;-70
2023/07/04 13:00:24;;;;;;;13.32;1.60;;;;;;;;;;5119730;27;20441;-72
2023/07/04 13:02:51;;;;;;;11.48;1.80;;;;;;;;;;5138305;27;20463;-72
2023/07/04 13:05:20;;;;;;;12.88;1.23;;;;;;;;;;5137508;27;20046;-70
2023/07/04 13:07:49;;;;;;;12.85;1.60;;;;;;;;;;5137470;27;20475;-71
2023/07/04 13:10:26;;;;;;;13.88;1.45;;;;;;;;;;5137340;27;20103;-72
2023/07/04 13:12:53;;;;;;;6.55;0.95;;;;;;;;;;5137642;27;20090;-72